Vision — WDF6306 — position and weather

sailwx.info

Track history (hours):
 
Tides and Currents Weather Stations Pressure Air Temp Water Temp Dewpoint Dewpoint Depression Visibility Wind Speed Wind Dir Waves Ship Positions

Vision

Owner: INTREPID SHIP MANAGEMENT, JACKSONVILLE, FL. More information available from US FCC via Universal Licensing System and Coast Guard Vessel Documentation Center.

Last reported at 2015-Feb-27 06:33 UTC. Time now 2015-Feb-27 07:32 UTC.
Position N 37°38' W 122°57'.

Length 199 m; draft 6.7 m.

Type: Towing. MMSI: 366904000.

Date/timePositionNaut miles runAvg speedWind from/ knotsBaromVisibWave heightAir tempDewpointWater temp
2015-Feb-27 06:33N 37°38' W 122°57'1010.1
2015-Feb-27 05:33N 37°43' W 122°45'9 8.7
2015-Feb-27 04:33N 37°47' W 122°36'1010.1
2015-Feb-27 03:33N 37°52' W 122°25'8 7.8
2015-Feb-27 02:34N 38°00' W 122°25'1210.6
2015-Feb-27 01:28N 38°03' W 122°11'2 2.4
2015-Feb-27 00:27N 38°02' W 122°08'0 0.0
2015-Feb-26 21:21N 38°02' W 122°08'0 0.0
2015-Feb-26 20:33N 38°02' W 122°08'0 0.0
2015-Feb-26 19:33N 38°02' W 122°08'0 0.0
2015-Feb-26 18:33N 38°02' W 122°08'0 0.0
2015-Feb-26 17:27N 38°02' W 122°08'0 0.0
2015-Feb-26 16:33N 38°02' W 122°08'0 0.0
2015-Feb-26 15:33N 38°02' W 122°08'0 0.0
2015-Feb-26 14:33N 38°02' W 122°08'0 0.0
2015-Feb-26 13:33N 38°02' W 122°08'0 0.0
2015-Feb-26 12:33N 38°02' W 122°08'0 0.0
2015-Feb-26 11:33N 38°02' W 122°08'0 0.0
2015-Feb-26 10:33N 38°02' W 122°08'0 0.0
2015-Feb-26 09:33N 38°02' W 122°08'0 0.0
2015-Feb-26 08:33N 38°02' W 122°08'0 0.0
2015-Feb-26 07:33N 38°02' W 122°08'0 0.0
2015-Feb-26 06:33N 38°02' W 122°08'0 0.0
2015-Feb-26 05:33N 38°02' W 122°08'0 0.0
2015-Feb-26 04:33N 38°02' W 122°08'0 0.0
2015-Feb-26 03:33N 38°02' W 122°08'0 0.0
2015-Feb-26 02:34N 38°02' W 122°08'3 3.0
2015-Feb-26 01:34N 38°03' W 122°11'9 9.3
2015-Feb-26 00:33N 38°02' W 122°23'9 9.1
2015-Feb-25 23:33N 37°53' W 122°25'9 9.2
2015-Feb-25 22:34N 37°47' W 122°34'1211.5
2015-Feb-25 21:34N 37°41' W 122°47'1211.6
2015-Feb-25 20:33N 37°34' W 122°59'1111.2
2015-Feb-25 19:34N 37°33' W 123°13'1211.7
2015-Feb-25 18:33N 37°36' W 123°27'1211.4
2015-Feb-25 17:32N 37°40' W 123°41'1212.0
2015-Feb-25 16:34N 37°48' W 123°52'1212.0
2015-Feb-25 15:32N 37°56' W 124°04'1211.8
2015-Feb-25 14:32N 38°04' W 124°15'1211.6
2015-Feb-25 13:29N 38°12' W 124°27'1511.4
2015-Feb-25 12:11N 38°24' W 124°38'1011.7
2015-Feb-25 11:20N 38°33' W 124°43'1111.6
2015-Feb-25 10:23N 38°43' W 124°49'911.4
2015-Feb-25 09:34N 38°51' W 124°54'1211.8
2015-Feb-25 08:33N 39°03' W 124°60'3012.3
2015-Feb-25 06:04N 39°31' W 125°14'50711.8
2015-Feb-23 11:09N 47°58' W 125°27'711.5
2015-Feb-23 10:33N 48°05' W 125°22'1211.6
2015-Feb-23 09:34N 48°15' W 125°15'1211.9
2015-Feb-23 08:33N 48°26' W 125°07'1110.8
2015-Feb-23 07:33N 48°31' W 124°53'1912.9
2015-Feb-23 06:05N 48°25' W 124°25'813.1
2015-Feb-23 05:26N 48°22' W 124°14'1212.9
2015-Feb-23 04:32N 48°18' W 123°58'1212.3
2015-Feb-23 03:34N 48°16' W 123°40'1110.8
2015-Feb-23 02:34N 48°11' W 123°25'8 7.7
2015-Feb-23 01:33N 48°13' W 123°13'1111.4
2015-Feb-23 00:34N 48°20' W 122°60'1111.0
2015-Feb-22 23:33N 48°26' W 122°47'9 9.0
2015-Feb-22 22:33N 48°31' W 122°35'1 2.6
2015-Feb-22 22:22N 48°31' W 122°35'0 0.3
2015-Feb-22 21:34N 48°31' W 122°35'0 0.0
2015-Feb-22 20:33N 48°31' W 122°35'0 0.0
2015-Feb-22 19:33N 48°31' W 122°35'0 0.0
2015-Feb-22 18:34N 48°31' W 122°35'0 0.0
2015-Feb-22 17:34N 48°31' W 122°35'0 0.0
2015-Feb-22 16:33N 48°31' W 122°35'0 0.0
2015-Feb-22 15:33N 48°31' W 122°35'0 0.0
2015-Feb-22 14:33N 48°31' W 122°35'0 0.0
2015-Feb-22 13:33N 48°31' W 122°35'0 0.0
2015-Feb-22 12:33N 48°31' W 122°35'0 0.0
2015-Feb-22 11:34N 48°31' W 122°35'0 0.0
2015-Feb-22 10:33N 48°31' W 122°35'0 0.0
2015-Feb-22 09:33N 48°31' W 122°35'0 0.0
2015-Feb-22 08:33N 48°31' W 122°35'0 0.0
2015-Feb-22 07:34N 48°31' W 122°35'0 0.0
2015-Feb-22 06:33N 48°31' W 122°35'0 0.0
2015-Feb-22 05:34N 48°31' W 122°35'0 0.0
2015-Feb-22 04:34N 48°31' W 122°35'0 0.0
2015-Feb-22 03:33N 48°31' W 122°35'0 0.0
2015-Feb-22 02:34N 48°31' W 122°35'0 0.0
2015-Feb-22 01:33N 48°31' W 122°35'0 0.0
2015-Feb-22 00:34N 48°31' W 122°35'0 0.0
2015-Feb-21 23:34N 48°31' W 122°35'0 0.0
2015-Feb-21 22:34N 48°31' W 122°35'0 0.0
2015-Feb-21 21:34N 48°31' W 122°35'0 0.0
2015-Feb-21 20:33N 48°31' W 122°35'0 0.0
2015-Feb-21 19:34N 48°31' W 122°35'0 0.0
2015-Feb-21 18:34N 48°31' W 122°35'0 0.0
2015-Feb-21 17:34N 48°31' W 122°35'0 0.0
2015-Feb-21 16:33N 48°31' W 122°35'0 0.0
2015-Feb-21 15:33N 48°31' W 122°35'0 0.0
2015-Feb-21 14:34N 48°31' W 122°35'0 0.0
2015-Feb-21 13:33N 48°31' W 122°35'0 0.0
2015-Feb-21 12:33N 48°31' W 122°35'0 0.0
2015-Feb-21 11:34N 48°31' W 122°35'0 0.0
2015-Feb-21 10:33N 48°31' W 122°35'0 0.0
2015-Feb-21 09:33N 48°31' W 122°35'0 0.0
2015-Feb-21 08:34N 48°31' W 122°35'0 0.0
2015-Feb-21 07:33N 48°31' W 122°35'0 0.0
2015-Feb-21 06:33N 48°31' W 122°35'0 0.0
2015-Feb-21 05:34N 48°31' W 122°35'0 0.0
2015-Feb-21 04:33N 48°31' W 122°35'0 0.0
2015-Feb-21 03:33N 48°31' W 122°35'0 0.0
2015-Feb-21 02:33N 48°31' W 122°35'0 0.0
2015-Feb-21 01:33N 48°31' W 122°35'0 0.0
2015-Feb-21 00:33N 48°31' W 122°35'0 0.0
2015-Feb-20 23:34N 48°31' W 122°35'0 0.0
2015-Feb-20 22:32N 48°31' W 122°35'0 0.0
2015-Feb-20 21:34N 48°31' W 122°35'0 0.0
2015-Feb-20 20:34N 48°31' W 122°35'0 0.0
2015-Feb-20 19:33N 48°31' W 122°35'0 0.0
2015-Feb-20 18:33N 48°31' W 122°35'0 0.0
2015-Feb-20 17:34N 48°31' W 122°35'0 0.0
2015-Feb-20 16:34N 48°31' W 122°35'0 0.1
2015-Feb-20 16:06N 48°31' W 122°35'0 0.1
2015-Feb-20 15:34N 48°31' W 122°35'0 0.0
2015-Feb-20 14:34N 48°31' W 122°35'0 0.0
2015-Feb-20 13:34N 48°31' W 122°35'0 0.0
2015-Feb-20 12:33N 48°31' W 122°35'0 0.0
2015-Feb-20 11:33N 48°31' W 122°35'0 0.0
2015-Feb-20 10:34N 48°31' W 122°35'0 0.0
2015-Feb-20 09:33N 48°31' W 122°35'0 0.3
2015-Feb-20 08:33N 48°31' W 122°35'7 6.7
2015-Feb-20 07:33N 48°29' W 122°45'1110.7
2015-Feb-20 06:34N 48°21' W 122°55'1111.1
2015-Feb-20 05:33N 48°15' W 123°09'10 9.9
2015-Feb-20 04:33N 48°09' W 123°22'3 2.4
2015-Feb-20 03:18N 48°08' W 123°26'0 0.0
2015-Feb-20 02:33N 48°08' W 123°26'0 0.0
2015-Feb-20 01:27N 48°08' W 123°26'0 0.0
2015-Feb-20 00:33N 48°08' W 123°26'0 0.0
2015-Feb-19 23:30N 48°08' W 123°26'0 0.0
2015-Feb-19 22:27N 48°08' W 123°26'0 0.1
2015-Feb-19 21:33N 48°08' W 123°26'0 0.0
2015-Feb-19 20:24N 48°08' W 123°26'0 0.0
2015-Feb-19 19:33N 48°08' W 123°26'0 0.0
2015-Feb-19 18:30N 48°08' W 123°26'0 0.1
2015-Feb-19 17:30N 48°08' W 123°26'0 0.0
2015-Feb-19 16:27N 48°08' W 123°26'0 0.0
2015-Feb-19 15:26N 48°08' W 123°26'0 0.0
2015-Feb-19 13:23N 48°08' W 123°26'0 0.0
2015-Feb-19 12:29N 48°08' W 123°26'0 0.0
2015-Feb-19 11:32N 48°08' W 123°26'0 0.1
2015-Feb-19 10:23N 48°08' W 123°26'0 0.0
2015-Feb-19 09:33N 48°08' W 123°26'3 2.6
2015-Feb-19 08:33N 48°11' W 123°27'6 6.3
2015-Feb-19 07:33N 48°13' W 123°35'7 6.8
2015-Feb-19 06:33N 48°13' W 123°46'7 6.7
2015-Feb-19 05:33N 48°13' W 123°56'7 7.2
2015-Feb-19 04:33N 48°16' W 124°05'8 7.4
2015-Feb-19 03:32N 48°19' W 124°16'8 6.5
2015-Feb-19 02:16N 48°23' W 124°27'  
Track history (hours):
 
Tides and Currents Weather Stations Pressure Air Temp Water Temp Dewpoint Dewpoint Depression Visibility Wind Speed Wind Dir Waves Ship Positions

Vision

Owner: INTREPID SHIP MANAGEMENT, JACKSONVILLE, FL. More information available from US FCC via Universal Licensing System and Coast Guard Vessel Documentation Center.

Last reported at 2015-Feb-27 06:33 UTC. Time now 2015-Feb-27 07:32 UTC.
Position N 37°38' W 122°57'.

Length 199 m; draft 6.7 m.

Type: Towing. MMSI: 366904000.

Date/timePositionNaut miles runAvg speedWind from/ knotsBaromVisibWave heightAir tempDewpointWater temp
2015-Feb-27 06:33N 37°38' W 122°57'1010.1
2015-Feb-27 05:33N 37°43' W 122°45'9 8.7
2015-Feb-27 04:33N 37°47' W 122°36'1010.1
2015-Feb-27 03:33N 37°52' W 122°25'8 7.8
2015-Feb-27 02:34N 38°00' W 122°25'1210.6
2015-Feb-27 01:28N 38°03' W 122°11'2 2.4
2015-Feb-27 00:27N 38°02' W 122°08'0 0.0
2015-Feb-26 21:21N 38°02' W 122°08'0 0.0
2015-Feb-26 20:33N 38°02' W 122°08'0 0.0
2015-Feb-26 19:33N 38°02' W 122°08'0 0.0
2015-Feb-26 18:33N 38°02' W 122°08'0 0.0
2015-Feb-26 17:27N 38°02' W 122°08'0 0.0
2015-Feb-26 16:33N 38°02' W 122°08'0 0.0
2015-Feb-26 15:33N 38°02' W 122°08'0 0.0
2015-Feb-26 14:33N 38°02' W 122°08'0 0.0
2015-Feb-26 13:33N 38°02' W 122°08'0 0.0
2015-Feb-26 12:33N 38°02' W 122°08'0 0.0
2015-Feb-26 11:33N 38°02' W 122°08'0 0.0
2015-Feb-26 10:33N 38°02' W 122°08'0 0.0
2015-Feb-26 09:33N 38°02' W 122°08'0 0.0
2015-Feb-26 08:33N 38°02' W 122°08'0 0.0
2015-Feb-26 07:33N 38°02' W 122°08'0 0.0
2015-Feb-26 06:33N 38°02' W 122°08'0 0.0
2015-Feb-26 05:33N 38°02' W 122°08'0 0.0
2015-Feb-26 04:33N 38°02' W 122°08'0 0.0
2015-Feb-26 03:33N 38°02' W 122°08'0 0.0
2015-Feb-26 02:34N 38°02' W 122°08'3 3.0
2015-Feb-26 01:34N 38°03' W 122°11'9 9.3
2015-Feb-26 00:33N 38°02' W 122°23'9 9.1
2015-Feb-25 23:33N 37°53' W 122°25'9 9.2
2015-Feb-25 22:34N 37°47' W 122°34'1211.5
2015-Feb-25 21:34N 37°41' W 122°47'1211.6
2015-Feb-25 20:33N 37°34' W 122°59'1111.2
2015-Feb-25 19:34N 37°33' W 123°13'1211.7
2015-Feb-25 18:33N 37°36' W 123°27'1211.4
2015-Feb-25 17:32N 37°40' W 123°41'1212.0
2015-Feb-25 16:34N 37°48' W 123°52'1212.0
2015-Feb-25 15:32N 37°56' W 124°04'1211.8
2015-Feb-25 14:32N 38°04' W 124°15'1211.6
2015-Feb-25 13:29N 38°12' W 124°27'1511.4
2015-Feb-25 12:11N 38°24' W 124°38'1011.7
2015-Feb-25 11:20N 38°33' W 124°43'1111.6
2015-Feb-25 10:23N 38°43' W 124°49'911.4
2015-Feb-25 09:34N 38°51' W 124°54'1211.8
2015-Feb-25 08:33N 39°03' W 124°60'3012.3
2015-Feb-25 06:04N 39°31' W 125°14'50711.8
2015-Feb-23 11:09N 47°58' W 125°27'711.5
2015-Feb-23 10:33N 48°05' W 125°22'1211.6
2015-Feb-23 09:34N 48°15' W 125°15'1211.9
2015-Feb-23 08:33N 48°26' W 125°07'1110.8
2015-Feb-23 07:33N 48°31' W 124°53'1912.9
2015-Feb-23 06:05N 48°25' W 124°25'813.1
2015-Feb-23 05:26N 48°22' W 124°14'1212.9
2015-Feb-23 04:32N 48°18' W 123°58'1212.3
2015-Feb-23 03:34N 48°16' W 123°40'1110.8
2015-Feb-23 02:34N 48°11' W 123°25'8 7.7
2015-Feb-23 01:33N 48°13' W 123°13'1111.4
2015-Feb-23 00:34N 48°20' W 122°60'1111.0
2015-Feb-22 23:33N 48°26' W 122°47'9 9.0
2015-Feb-22 22:33N 48°31' W 122°35'1 2.6
2015-Feb-22 22:22N 48°31' W 122°35'0 0.3
2015-Feb-22 21:34N 48°31' W 122°35'0 0.0
2015-Feb-22 20:33N 48°31' W 122°35'0 0.0
2015-Feb-22 19:33N 48°31' W 122°35'0 0.0
2015-Feb-22 18:34N 48°31' W 122°35'0 0.0
2015-Feb-22 17:34N 48°31' W 122°35'0 0.0
2015-Feb-22 16:33N 48°31' W 122°35'0 0.0
2015-Feb-22 15:33N 48°31' W 122°35'0 0.0
2015-Feb-22 14:33N 48°31' W 122°35'0 0.0
2015-Feb-22 13:33N 48°31' W 122°35'0 0.0
2015-Feb-22 12:33N 48°31' W 122°35'0 0.0
2015-Feb-22 11:34N 48°31' W 122°35'0 0.0
2015-Feb-22 10:33N 48°31' W 122°35'0 0.0
2015-Feb-22 09:33N 48°31' W 122°35'0 0.0
2015-Feb-22 08:33N 48°31' W 122°35'0 0.0
2015-Feb-22 07:34N 48°31' W 122°35'0 0.0
2015-Feb-22 06:33N 48°31' W 122°35'0 0.0
2015-Feb-22 05:34N 48°31' W 122°35'0 0.0
2015-Feb-22 04:34N 48°31' W 122°35'0 0.0
2015-Feb-22 03:33N 48°31' W 122°35'0 0.0
2015-Feb-22 02:34N 48°31' W 122°35'0 0.0
2015-Feb-22 01:33N 48°31' W 122°35'0 0.0
2015-Feb-22 00:34N 48°31' W 122°35'0 0.0
2015-Feb-21 23:34N 48°31' W 122°35'0 0.0
2015-Feb-21 22:34N 48°31' W 122°35'0 0.0
2015-Feb-21 21:34N 48°31' W 122°35'0 0.0
2015-Feb-21 20:33N 48°31' W 122°35'0 0.0
2015-Feb-21 19:34N 48°31' W 122°35'0 0.0
2015-Feb-21 18:34N 48°31' W 122°35'0 0.0
2015-Feb-21 17:34N 48°31' W 122°35'0 0.0
2015-Feb-21 16:33N 48°31' W 122°35'0 0.0
2015-Feb-21 15:33N 48°31' W 122°35'0 0.0
2015-Feb-21 14:34N 48°31' W 122°35'0 0.0
2015-Feb-21 13:33N 48°31' W 122°35'0 0.0
2015-Feb-21 12:33N 48°31' W 122°35'0 0.0
2015-Feb-21 11:34N 48°31' W 122°35'0 0.0
2015-Feb-21 10:33N 48°31' W 122°35'0 0.0
2015-Feb-21 09:33N 48°31' W 122°35'0 0.0
2015-Feb-21 08:34N 48°31' W 122°35'0 0.0
2015-Feb-21 07:33N 48°31' W 122°35'0 0.0
2015-Feb-21 06:33N 48°31' W 122°35'0 0.0
2015-Feb-21 05:34N 48°31' W 122°35'0 0.0
2015-Feb-21 04:33N 48°31' W 122°35'0 0.0
2015-Feb-21 03:33N 48°31' W 122°35'0 0.0
2015-Feb-21 02:33N 48°31' W 122°35'0 0.0
2015-Feb-21 01:33N 48°31' W 122°35'0 0.0
2015-Feb-21 00:33N 48°31' W 122°35'0 0.0
2015-Feb-20 23:34N 48°31' W 122°35'0 0.0
2015-Feb-20 22:32N 48°31' W 122°35'0 0.0
2015-Feb-20 21:34N 48°31' W 122°35'0 0.0
2015-Feb-20 20:34N 48°31' W 122°35'0 0.0
2015-Feb-20 19:33N 48°31' W 122°35'0 0.0
2015-Feb-20 18:33N 48°31' W 122°35'0 0.0
2015-Feb-20 17:34N 48°31' W 122°35'0 0.0
2015-Feb-20 16:34N 48°31' W 122°35'0 0.1
2015-Feb-20 16:06N 48°31' W 122°35'0 0.1
2015-Feb-20 15:34N 48°31' W 122°35'0 0.0
2015-Feb-20 14:34N 48°31' W 122°35'0 0.0
2015-Feb-20 13:34N 48°31' W 122°35'0 0.0
2015-Feb-20 12:33N 48°31' W 122°35'0 0.0
2015-Feb-20 11:33N 48°31' W 122°35'0 0.0
2015-Feb-20 10:34N 48°31' W 122°35'0 0.0
2015-Feb-20 09:33N 48°31' W 122°35'0 0.3
2015-Feb-20 08:33N 48°31' W 122°35'7 6.7
2015-Feb-20 07:33N 48°29' W 122°45'1110.7
2015-Feb-20 06:34N 48°21' W 122°55'1111.1
2015-Feb-20 05:33N 48°15' W 123°09'10 9.9
2015-Feb-20 04:33N 48°09' W 123°22'3 2.4
2015-Feb-20 03:18N 48°08' W 123°26'0 0.0
2015-Feb-20 02:33N 48°08' W 123°26'0 0.0
2015-Feb-20 01:27N 48°08' W 123°26'0 0.0
2015-Feb-20 00:33N 48°08' W 123°26'0 0.0
2015-Feb-19 23:30N 48°08' W 123°26'0 0.0
2015-Feb-19 22:27N 48°08' W 123°26'0 0.1
2015-Feb-19 21:33N 48°08' W 123°26'0 0.0
2015-Feb-19 20:24N 48°08' W 123°26'0 0.0
2015-Feb-19 19:33N 48°08' W 123°26'0 0.0
2015-Feb-19 18:30N 48°08' W 123°26'0 0.1
2015-Feb-19 17:30N 48°08' W 123°26'0 0.0
2015-Feb-19 16:27N 48°08' W 123°26'0 0.0
2015-Feb-19 15:26N 48°08' W 123°26'0 0.0
2015-Feb-19 13:23N 48°08' W 123°26'0 0.0
2015-Feb-19 12:29N 48°08' W 123°26'0 0.0
2015-Feb-19 11:32N 48°08' W 123°26'0 0.1
2015-Feb-19 10:23N 48°08' W 123°26'0 0.0
2015-Feb-19 09:33N 48°08' W 123°26'3 2.6
2015-Feb-19 08:33N 48°11' W 123°27'6 6.3
2015-Feb-19 07:33N 48°13' W 123°35'7 6.8
2015-Feb-19 06:33N 48°13' W 123°46'7 6.7
2015-Feb-19 05:33N 48°13' W 123°56'7 7.2
2015-Feb-19 04:33N 48°16' W 124°05'8 7.4
2015-Feb-19 03:32N 48°19' W 124°16'8 6.5
2015-Feb-19 02:16N 48°23' W 124°27'  

Dump ship's entire track history